CheckWX is a tool to help pilots better visualize weather data.  It is not intended as a substitute for an official pre-flight weather briefing.

07:54:49 UTC

EDDM METAR
Munich International Airport
Munich, Germany
Current

35 mins ago

EDDM 150720Z VRB02KT 0300 R08L/1700N R08R/1900N BCFG SCT001 BKN002 12/12 Q1027 BECMG 1200 SCT003
Observed
Sep-15 @ 07:20 UTC
Wind
  • Variable at 2 KTS
Visibility
300 meters
Flight Rules
LIFR
Conditions
Patches of Fog
Cloud Levels
  • Scattered at 100' AGL
  • Broken at 200' AGL
Temperature
12°C / 54°F
Dewpoint
12°C / 54°F
Humidity
100%
Altimeter
30.32" Hg
Pressure
1026.92 hPa
Previous

1 hour ago

EDDM 150650Z 19004KT 0300 0200S R08L/1800D R08R/0325N BCFG SCT001 BKN002 11/11 Q1027 BECMG 1200 SCT003
Observed
Sep-15 @ 06:50 UTC
Wind
  • 190° at 4 KTS
Visibility
300 meters
Flight Rules
LIFR
Conditions
Patches of Fog
Cloud Levels
  • Scattered at 100' AGL
  • Broken at 200' AGL
Temperature
11°C / 52°F
Dewpoint
11°C / 52°F
Humidity
100%
Altimeter
30.32" Hg
Pressure
1026.92 hPa
Previous

2 hours ago

EDDM 150620Z 00000KT 0750 0300S R08L/0900U R08R/0350N BCFG FEW001 10/10 Q1026 TEMPO BKN002
Observed
Sep-15 @ 06:20 UTC
Visibility
800 meters
Flight Rules
LIFR
Conditions
Patches of Fog
Cloud Levels
  • Few at 100' AGL
Temperature
10°C / 50°F
Dewpoint
10°C / 50°F
Humidity
100%
Altimeter
30.3" Hg
Pressure
1025.92 hPa